Terminal Aerodrome Forecast
Issued by NWS

Home | Current Version | Previous Version | Text Only | Print | Product List | Glossary On
Versions: 1 2 3 4 5 6 7 8 9 10 11 12
859
FTUS43 KAPX 260526
TAFTVC
TAF
KTVC 260526Z 2606/2706 00000KT P6SM FEW060
     FM261500 19005KT P6SM FEW040
     FM261900 25008KT P6SM FEW060 SCT200
     FM270000 25006KT P6SM SCT030 BKN120
     FM270400 28008KT P6SM BKN025 BKN050=

USA.gov is the U.S. government's official web portal to all federal, state and local government web resources and services.